sensor_id;sensor_type;location;lat;lon;timestamp;pressure;altitude;pressure_sealevel;temperature;humidity
39209;BME280;24929;51.982;4.664;2023-02-12T00:01:24;78960.56;;;-143.36;nan
39209;BME280;24929;51.982;4.664;2023-02-12T00:03:49;78976.63;;;-143.36;nan
39209;BME280;24929;51.982;4.664;2023-02-12T00:06:15;78976.63;;;-143.36;nan
39209;BME280;24929;51.982;4.664;2023-02-12T00:08:40;78976.63;;;-143.36;nan
39209;BME280;24929;51.982;4.664;2023-02-12T00:11:07;78956.56;;;-143.36;nan
39209;BME280;24929;51.982;4.664;2023-02-12T00:13:33;78994.72;;;-143.36;nan
39209;BME280;24929;51.982;4.664;2023-02-12T00:16:03;78960.56;;;-143.36;nan
39209;BME280;24929;51.982;4.664;2023-02-12T00:18:28;78990.69;;;-143.36;nan
39209;BME280;24929;51.982;4.664;2023-02-12T00:20:54;78986.69;;;-143.36;nan
39209;BME280;24929;51.982;4.664;2023-02-12T00:23:19;78982.66;;;-143.36;nan
39209;BME280;24929;51.982;4.664;2023-02-12T00:25:44;78982.66;;;-143.36;nan
39209;BME280;24929;51.982;4.664;2023-02-12T00:28:10;78978.66;;;-143.36;nan
39209;BME280;24929;51.982;4.664;2023-02-12T00:30:35;78974.63;;;-143.36;nan
39209;BME280;24929;51.982;4.664;2023-02-12T00:33:00;78976.63;;;-143.36;nan
39209;BME280;24929;51.982;4.664;2023-02-12T00:35:26;78978.66;;;-143.36;nan
39209;BME280;24929;51.982;4.664;2023-02-12T00:37:51;78980.66;;;-143.36;nan
39209;BME280;24929;51.982;4.664;2023-02-12T00:40:17;78986.69;;;-143.36;nan
39209;BME280;24929;51.982;4.664;2023-02-12T00:42:42;78988.69;;;-143.36;nan
39209;BME280;24929;51.982;4.664;2023-02-12T00:45:08;78982.66;;;-143.36;nan
39209;BME280;24929;51.982;4.664;2023-02-12T00:47:33;78992.69;;;-143.36;nan
39209;BME280;24929;51.982;4.664;2023-02-12T00:49:58;78992.69;;;-143.36;nan
39209;BME280;24929;51.982;4.664;2023-02-12T00:52:24;78992.69;;;-143.36;nan
39209;BME280;24929;51.982;4.664;2023-02-12T00:54:49;79000.72;;;-143.36;nan
39209;BME280;24929;51.982;4.664;2023-02-12T00:57:14;79004.75;;;-143.36;nan
39209;BME280;24929;51.982;4.664;2023-02-12T00:59:40;78962.56;;;-143.36;nan
39209;BME280;24929;51.982;4.664;2023-02-12T01:02:06;79014.78;;;-143.36;nan
39209;BME280;24929;51.982;4.664;2023-02-12T01:04:32;78996.72;;;-143.36;nan
39209;BME280;24929;51.982;4.664;2023-02-12T01:06:57;78994.72;;;-143.36;nan
39209;BME280;24929;51.982;4.664;2023-02-12T01:09:22;78962.56;;;-143.36;nan
39209;BME280;24929;51.982;4.664;2023-02-12T01:11:48;78964.59;;;-143.36;nan
39209;BME280;24929;51.982;4.664;2023-02-12T01:14:13;79022.81;;;-143.36;nan
39209;BME280;24929;51.982;4.664;2023-02-12T01:16:38;78988.69;;;-143.36;nan
39209;BME280;24929;51.982;4.664;2023-02-12T01:19:04;78964.59;;;-143.36;nan
39209;BME280;24929;51.982;4.664;2023-02-12T01:21:32;78928.44;;;-143.36;nan
39209;BME280;24929;51.982;4.664;2023-02-12T01:23:59;78938.47;;;-143.36;nan
39209;BME280;24929;51.982;4.664;2023-02-12T01:26:25;78950.53;;;-143.36;nan
39209;BME280;24929;51.982;4.664;2023-02-12T01:28:54;78942.50;;;-143.36;nan
39209;BME280;24929;51.982;4.664;2023-02-12T01:31:22;78932.47;;;-143.36;nan
39209;BME280;24929;51.982;4.664;2023-02-12T01:33:51;78928.44;;;-143.36;nan
39209;BME280;24929;51.982;4.664;2023-02-12T01:36:17;78952.53;;;-143.36;nan
39209;BME280;24929;51.982;4.664;2023-02-12T01:38:43;78968.59;;;-143.36;nan
39209;BME280;24929;51.982;4.664;2023-02-12T01:41:13;78920.41;;;-143.36;nan
39209;BME280;24929;51.982;4.664;2023-02-12T01:43:38;78970.59;;;-143.36;nan
39209;BME280;24929;51.982;4.664;2023-02-12T01:46:05;78954.53;;;-143.36;nan
39209;BME280;24929;51.982;4.664;2023-02-12T01:48:38;78948.53;;;-143.36;nan
39209;BME280;24929;51.982;4.664;2023-02-12T01:51:04;78964.59;;;-143.36;nan
39209;BME280;24929;51.982;4.664;2023-02-12T01:53:37;78930.44;;;-143.36;nan
39209;BME280;24929;51.982;4.664;2023-02-12T01:56:05;78950.53;;;-143.36;nan
39209;BME280;24929;51.982;4.664;2023-02-12T01:58:35;78942.50;;;-143.36;nan
39209;BME280;24929;51.982;4.664;2023-02-12T02:01:05;78946.50;;;-143.36;nan
39209;BME280;24929;51.982;4.664;2023-02-12T02:03:33;78968.59;;;-143.36;nan
39209;BME280;24929;51.982;4.664;2023-02-12T02:06:03;78962.56;;;-143.36;nan
39209;BME280;24929;51.982;4.664;2023-02-12T02:08:31;78956.56;;;-143.36;nan
39209;BME280;24929;51.982;4.664;2023-02-12T02:10:57;79004.75;;;-143.36;nan
39209;BME280;24929;51.982;4.664;2023-02-12T02:13:22;79024.81;;;-143.36;nan
39209;BME280;24929;51.982;4.664;2023-02-12T02:16:19;78992.69;;;-143.36;nan
39209;BME280;24929;51.982;4.664;2023-02-12T02:19:01;79008.75;;;-143.36;nan
39209;BME280;24929;51.982;4.664;2023-02-12T02:21:50;79060.97;;;-143.36;nan
39209;BME280;24929;51.982;4.664;2023-02-12T02:27:22;79020.81;;;-143.36;nan
39209;BME280;24929;51.982;4.664;2023-02-12T02:32:53;78996.72;;;-143.36;nan
39209;BME280;24929;51.982;4.664;2023-02-12T02:35:29;79034.88;;;-143.36;nan
39209;BME280;24929;51.982;4.664;2023-02-12T02:38:22;79006.75;;;-143.36;nan
39209;BME280;24929;51.982;4.664;2023-02-12T02:43:53;79050.94;;;-143.36;nan
39209;BME280;24929;51.982;4.664;2023-02-12T02:48:52;79052.94;;;-143.36;nan
39209;BME280;24929;51.982;4.664;2023-02-12T02:51:21;79040.88;;;-143.36;nan
39209;BME280;24929;51.982;4.664;2023-02-12T02:53:56;79026.84;;;-143.36;nan
39209;BME280;24929;51.982;4.664;2023-02-12T02:56:26;79036.88;;;-143.36;nan
39209;BME280;24929;51.982;4.664;2023-02-12T02:58:57;79020.81;;;-143.36;nan
39209;BME280;24929;51.982;4.664;2023-02-12T03:01:31;79069.00;;;-143.36;nan
39209;BME280;24929;51.982;4.664;2023-02-12T03:04:03;79075.03;;;-143.36;nan
39209;BME280;24929;51.982;4.664;2023-02-12T03:06:48;79073.03;;;-143.36;nan
39209;BME280;24929;51.982;4.664;2023-02-12T03:11:42;79111.16;;;-143.36;nan
39209;BME280;24929;51.982;4.664;2023-02-12T03:14:31;79032.84;;;-143.36;nan
39209;BME280;24929;51.982;4.664;2023-02-12T03:17:25;79030.84;;;-143.36;nan
39209;BME280;24929;51.982;4.664;2023-02-12T03:20:05;79016.78;;;-143.36;nan
39209;BME280;24929;51.982;4.664;2023-02-12T03:22:38;79024.81;;;-143.36;nan
39209;BME280;24929;51.982;4.664;2023-02-12T03:25:15;79014.78;;;-143.36;nan
39209;BME280;24929;51.982;4.664;2023-02-12T03:28:03;79002.75;;;-143.36;nan
39209;BME280;24929;51.982;4.664;2023-02-12T03:30:43;79008.75;;;-143.36;nan
39209;BME280;24929;51.982;4.664;2023-02-12T03:33:29;79006.75;;;-143.36;nan
39209;BME280;24929;51.982;4.664;2023-02-12T03:36:32;78998.72;;;-143.36;nan
39209;BME280;24929;51.982;4.664;2023-02-12T03:38:55;79024.81;;;-143.36;nan
39209;BME280;24929;51.982;4.664;2023-02-12T03:41:29;79012.78;;;-143.36;nan
39209;BME280;24929;51.982;4.664;2023-02-12T03:44:17;78992.69;;;-143.36;nan
39209;BME280;24929;51.982;4.664;2023-02-12T03:46:57;79006.75;;;-143.36;nan
39209;BME280;24929;51.982;4.664;2023-02-12T03:49:34;79006.75;;;-143.36;nan
39209;BME280;24929;51.982;4.664;2023-02-12T03:52:03;79036.88;;;-143.36;nan
39209;BME280;24929;51.982;4.664;2023-02-12T03:54:29;79046.91;;;-143.36;nan
39209;BME280;24929;51.982;4.664;2023-02-12T03:59:30;79091.09;;;-143.36;nan
39209;BME280;24929;51.982;4.664;2023-02-12T04:01:58;79032.84;;;-143.36;nan
39209;BME280;24929;51.982;4.664;2023-02-12T04:04:24;79044.91;;;-143.36;nan
39209;BME280;24929;51.982;4.664;2023-02-12T04:06:51;79056.94;;;-143.36;nan
39209;BME280;24929;51.982;4.664;2023-02-12T04:09:17;79101.13;;;-143.36;nan
39209;BME280;24929;51.982;4.664;2023-02-12T04:20:03;79030.84;;;-143.36;nan
39209;BME280;24929;51.982;4.664;2023-02-12T04:23:06;79032.84;;;-143.36;nan
39209;BME280;24929;51.982;4.664;2023-02-12T04:28:30;79028.84;;;-143.36;nan
39209;BME280;24929;51.982;4.664;2023-02-12T04:31:02;79024.81;;;-143.36;nan
39209;BME280;24929;51.982;4.664;2023-02-12T04:33:39;79022.81;;;-143.36;nan
39209;BME280;24929;51.982;4.664;2023-02-12T04:36:12;79036.88;;;-143.36;nan
39209;BME280;24929;51.982;4.664;2023-02-12T04:38:43;79054.94;;;-143.36;nan
39209;BME280;24929;51.982;4.664;2023-02-12T04:41:11;79083.06;;;-143.36;nan
39209;BME280;24929;51.982;4.664;2023-02-12T04:43:37;79077.03;;;-143.36;nan
39209;BME280;24929;51.982;4.664;2023-02-12T04:46:04;79067.00;;;-143.36;nan
39209;BME280;24929;51.982;4.664;2023-02-12T04:48:30;79073.03;;;-143.36;nan
39209;BME280;24929;51.982;4.664;2023-02-12T04:50:55;79099.13;;;-143.36;nan
39209;BME280;24929;51.982;4.664;2023-02-12T04:53:21;79127.22;;;-143.36;nan
39209;BME280;24929;51.982;4.664;2023-02-12T04:55:46;79113.19;;;-143.36;nan
39209;BME280;24929;51.982;4.664;2023-02-12T04:58:13;79133.25;;;-143.36;nan
39209;BME280;24929;51.982;4.664;2023-02-12T05:00:38;79129.25;;;-143.36;nan
39209;BME280;24929;51.982;4.664;2023-02-12T05:03:04;79111.16;;;-143.36;nan
39209;BME280;24929;51.982;4.664;2023-02-12T05:05:30;79129.25;;;-143.36;nan
39209;BME280;24929;51.982;4.664;2023-02-12T05:07:55;79117.19;;;-143.36;nan
39209;BME280;24929;51.982;4.664;2023-02-12T05:10:20;79085.06;;;-143.36;nan
39209;BME280;24929;51.982;4.664;2023-02-12T05:12:46;79079.03;;;-143.36;nan
39209;BME280;24929;51.982;4.664;2023-02-12T05:15:11;79085.06;;;-143.36;nan
39209;BME280;24929;51.982;4.664;2023-02-12T05:17:36;79081.06;;;-143.36;nan
39209;BME280;24929;51.982;4.664;2023-02-12T05:20:03;79058.97;;;-143.36;nan
39209;BME280;24929;51.982;4.664;2023-02-12T05:22:28;79135.25;;;-143.36;nan
39209;BME280;24929;51.982;4.664;2023-02-12T05:24:54;79129.25;;;-143.36;nan
39209;BME280;24929;51.982;4.664;2023-02-12T05:27:20;79135.25;;;-143.36;nan
39209;BME280;24929;51.982;4.664;2023-02-12T05:29:45;79129.25;;;-143.36;nan
39209;BME280;24929;51.982;4.664;2023-02-12T05:32:10;79109.16;;;-143.36;nan
39209;BME280;24929;51.982;4.664;2023-02-12T05:34:36;79095.09;;;-143.36;nan
39209;BME280;24929;51.982;4.664;2023-02-12T05:37:01;79143.28;;;-143.36;nan
39209;BME280;24929;51.982;4.664;2023-02-12T05:39:27;79149.31;;;-143.36;nan
39209;BME280;24929;51.982;4.664;2023-02-12T05:41:52;79123.22;;;-143.36;nan
39209;BME280;24929;51.982;4.664;2023-02-12T05:44:18;79107.16;;;-143.36;nan
39209;BME280;24929;51.982;4.664;2023-02-12T05:46:43;79109.16;;;-143.36;nan
39209;BME280;24929;51.982;4.664;2023-02-12T05:49:09;79097.13;;;-143.36;nan
39209;BME280;24929;51.982;4.664;2023-02-12T05:51:35;79103.13;;;-143.36;nan
39209;BME280;24929;51.982;4.664;2023-02-12T05:54:02;79073.03;;;-143.36;nan
39209;BME280;24929;51.982;4.664;2023-02-12T05:56:30;79087.06;;;-143.36;nan
39209;BME280;24929;51.982;4.664;2023-02-12T05:59:01;79089.09;;;-143.36;nan
39209;BME280;24929;51.982;4.664;2023-02-12T06:01:33;79097.13;;;-143.36;nan
39209;BME280;24929;51.982;4.664;2023-02-12T06:03:59;79091.09;;;-143.36;nan
39209;BME280;24929;51.982;4.664;2023-02-12T06:06:26;79079.03;;;-143.36;nan
39209;BME280;24929;51.982;4.664;2023-02-12T06:08:52;79079.03;;;-143.36;nan
39209;BME280;24929;51.982;4.664;2023-02-12T06:11:18;79091.09;;;-143.36;nan
39209;BME280;24929;51.982;4.664;2023-02-12T06:13:45;79115.19;;;-143.36;nan
39209;BME280;24929;51.982;4.664;2023-02-12T06:16:25;79105.16;;;-143.36;nan
39209;BME280;24929;51.982;4.664;2023-02-12T06:18:52;79115.19;;;-143.36;nan
39209;BME280;24929;51.982;4.664;2023-02-12T06:21:19;79097.13;;;-143.36;nan
39209;BME280;24929;51.982;4.664;2023-02-12T06:23:45;79111.16;;;-143.36;nan
39209;BME280;24929;51.982;4.664;2023-02-12T06:26:10;79101.13;;;-143.36;nan
39209;BME280;24929;51.982;4.664;2023-02-12T06:28:36;79097.13;;;-143.36;nan
39209;BME280;24929;51.982;4.664;2023-02-12T06:31:02;79143.28;;;-143.36;nan
39209;BME280;24929;51.982;4.664;2023-02-12T06:33:27;79123.22;;;-143.36;nan
39209;BME280;24929;51.982;4.664;2023-02-12T06:35:53;79157.34;;;-143.36;nan
39209;BME280;24929;51.982;4.664;2023-02-12T06:38:18;79157.34;;;-143.36;nan
39209;BME280;24929;51.982;4.664;2023-02-12T06:40:44;79127.22;;;-143.36;nan
39209;BME280;24929;51.982;4.664;2023-02-12T06:43:09;79133.25;;;-143.36;nan
39209;BME280;24929;51.982;4.664;2023-02-12T06:45:34;79139.28;;;-143.36;nan
39209;BME280;24929;51.982;4.664;2023-02-12T06:48:03;79101.13;;;-143.36;nan
39209;BME280;24929;51.982;4.664;2023-02-12T06:50:29;79139.28;;;-143.36;nan
39209;BME280;24929;51.982;4.664;2023-02-12T06:52:54;79135.25;;;-143.36;nan
39209;BME280;24929;51.982;4.664;2023-02-12T06:55:19;79127.22;;;-143.36;nan
39209;BME280;24929;51.982;4.664;2023-02-12T06:57:45;79153.34;;;-143.36;nan
39209;BME280;24929;51.982;4.664;2023-02-12T07:00:11;79159.38;;;-143.36;nan
39209;BME280;24929;51.982;4.664;2023-02-12T07:02:36;79167.41;;;-143.36;nan
39209;BME280;24929;51.982;4.664;2023-02-12T07:05:02;79115.19;;;-143.36;nan
39209;BME280;24929;51.982;4.664;2023-02-12T07:07:28;79145.31;;;-143.36;nan
39209;BME280;24929;51.982;4.664;2023-02-12T07:09:53;79137.28;;;-143.36;nan
39209;BME280;24929;51.982;4.664;2023-02-12T07:12:19;79155.34;;;-143.36;nan
39209;BME280;24929;51.982;4.664;2023-02-12T07:14:44;79135.25;;;-143.36;nan
39209;BME280;24929;51.982;4.664;2023-02-12T07:17:09;79163.38;;;-143.36;nan
39209;BME280;24929;51.982;4.664;2023-02-12T07:19:35;79147.31;;;-143.36;nan
39209;BME280;24929;51.982;4.664;2023-02-12T07:22:01;79183.47;;;-143.36;nan
39209;BME280;24929;51.982;4.664;2023-02-12T07:24:26;79149.31;;;-143.36;nan
39209;BME280;24929;51.982;4.664;2023-02-12T07:26:51;79163.38;;;-143.36;nan
39209;BME280;24929;51.982;4.664;2023-02-12T07:29:17;79165.38;;;-143.36;nan
39209;BME280;24929;51.982;4.664;2023-02-12T07:31:42;79167.41;;;-143.36;nan
39209;BME280;24929;51.982;4.664;2023-02-12T07:34:09;79139.28;;;-143.36;nan
39209;BME280;24929;51.982;4.664;2023-02-12T07:36:35;79263.78;;;-143.36;nan
39209;BME280;24929;51.982;4.664;2023-02-12T07:53:05;79340.09;;;-143.36;nan
39209;BME280;24929;51.982;4.664;2023-02-12T07:55:31;79340.09;;;-143.36;nan
39209;BME280;24929;51.982;4.664;2023-02-12T07:57:56;79348.13;;;-143.36;nan
39209;BME280;24929;51.982;4.664;2023-02-12T08:00:21;79336.06;;;-143.36;nan
39209;BME280;24929;51.982;4.664;2023-02-12T08:02:51;79285.88;;;-143.36;nan
39209;BME280;24929;51.982;4.664;2023-02-12T08:05:17;79297.91;;;-143.36;nan
39209;BME280;24929;51.982;4.664;2023-02-12T08:07:42;79316.00;;;-143.36;nan
39209;BME280;24929;51.982;4.664;2023-02-12T08:10:08;79326.03;;;-143.36;nan
39209;BME280;24929;51.982;4.664;2023-02-12T08:12:34;79291.91;;;-143.36;nan
39209;BME280;24929;51.982;4.664;2023-02-12T08:14:59;79223.63;;;-143.36;nan
39209;BME280;24929;51.982;4.664;2023-02-12T08:17:24;79219.59;;;-143.36;nan
39209;BME280;24929;51.982;4.664;2023-02-12T08:19:50;79189.47;;;-143.36;nan
39209;BME280;24929;51.982;4.664;2023-02-12T08:22:15;79157.34;;;-143.36;nan
39209;BME280;24929;51.982;4.664;2023-02-12T08:24:40;79175.44;;;-143.36;nan
39209;BME280;24929;51.982;4.664;2023-02-12T08:27:06;79209.56;;;-143.36;nan
39209;BME280;24929;51.982;4.664;2023-02-12T08:29:32;79167.41;;;-143.36;nan
39209;BME280;24929;51.982;4.664;2023-02-12T08:32:00;79147.31;;;-143.36;nan
39209;BME280;24929;51.982;4.664;2023-02-12T08:34:29;79137.28;;;-143.36;nan
39209;BME280;24929;51.982;4.664;2023-02-12T08:43:18;79067.00;;;-143.36;nan
39209;BME280;24929;51.982;4.664;2023-02-12T08:45:44;79133.25;;;-143.36;nan
39209;BME280;24929;51.982;4.664;2023-02-12T08:48:09;79145.31;;;-143.36;nan
39209;BME280;24929;51.982;4.664;2023-02-12T08:50:34;79161.38;;;-143.36;nan
39209;BME280;24929;51.982;4.664;2023-02-12T08:53:00;79167.41;;;-143.36;nan
39209;BME280;24929;51.982;4.664;2023-02-12T08:55:25;79163.38;;;-143.36;nan
39209;BME280;24929;51.982;4.664;2023-02-12T08:57:52;79153.34;;;-143.36;nan
39209;BME280;24929;51.982;4.664;2023-02-12T09:00:22;79141.28;;;-143.36;nan
39209;BME280;24929;51.982;4.664;2023-02-12T09:02:47;79159.38;;;-143.36;nan
39209;BME280;24929;51.982;4.664;2023-02-12T09:05:13;79139.28;;;-143.36;nan
39209;BME280;24929;51.982;4.664;2023-02-12T09:07:38;79143.28;;;-143.36;nan
39209;BME280;24929;51.982;4.664;2023-02-12T09:10:04;79141.28;;;-143.36;nan
39209;BME280;24929;51.982;4.664;2023-02-12T09:12:30;79167.41;;;-143.36;nan
39209;BME280;24929;51.982;4.664;2023-02-12T09:14:55;79173.41;;;-143.36;nan
39209;BME280;24929;51.982;4.664;2023-02-12T09:17:20;79155.34;;;-143.36;nan
39209;BME280;24929;51.982;4.664;2023-02-12T09:19:51;79147.31;;;-143.36;nan
39209;BME280;24929;51.982;4.664;2023-02-12T09:22:17;79079.03;;;-143.36;nan
39209;BME280;24929;51.982;4.664;2023-02-12T09:24:42;79085.06;;;-143.36;nan
39209;BME280;24929;51.982;4.664;2023-02-12T09:27:08;79095.09;;;-143.36;nan
39209;BME280;24929;51.982;4.664;2023-02-12T09:29:34;79125.22;;;-143.36;nan
39209;BME280;24929;51.982;4.664;2023-02-12T09:31:59;79283.88;;;-143.36;nan
39209;BME280;24929;51.982;4.664;2023-02-12T09:34:26;79006.75;;;-143.36;nan
39209;BME280;24929;51.982;4.664;2023-02-12T09:36:52;79267.78;;;-143.36;nan
39209;BME280;24929;51.982;4.664;2023-02-12T09:39:17;79199.53;;;-143.36;nan
39209;BME280;24929;51.982;4.664;2023-02-12T09:42:01;79311.97;;;-143.36;nan
39209;BME280;24929;51.982;4.664;2023-02-12T09:52:21;78994.72;;;-143.36;nan
39209;BME280;24929;51.982;4.664;2023-02-12T09:54:49;79223.63;;;-143.36;nan
39209;BME280;24929;51.982;4.664;2023-02-12T09:57:29;79245.72;;;-143.36;nan
39209;BME280;24929;51.982;4.664;2023-02-12T10:00:14;79263.78;;;-143.36;nan
39209;BME280;24929;51.982;4.664;2023-02-12T10:02:41;79301.94;;;-143.36;nan
39209;BME280;24929;51.982;4.664;2023-02-12T10:05:18;79225.63;;;-143.36;nan
39209;BME280;24929;51.982;4.664;2023-02-12T10:08:09;79219.59;;;-143.36;nan
39209;BME280;24929;51.982;4.664;2023-02-12T10:10:51;79243.69;;;-143.36;nan
39209;BME280;24929;51.982;4.664;2023-02-12T10:27:53;79247.72;;;-143.36;nan
39209;BME280;24929;51.982;4.664;2023-02-12T10:30:23;79237.69;;;-143.36;nan
39209;BME280;24929;51.982;4.664;2023-02-12T10:32:59;79089.09;;;-143.36;nan
39209;BME280;24929;51.982;4.664;2023-02-12T10:35:27;78982.66;;;-143.36;nan
39209;BME280;24929;51.982;4.664;2023-02-12T10:40:26;79008.75;;;-143.36;nan
39209;BME280;24929;51.982;4.664;2023-02-12T10:42:54;79171.41;;;-143.36;nan
39209;BME280;24929;51.982;4.664;2023-02-12T10:45:25;79103.13;;;-143.36;nan
39209;BME280;24929;51.982;4.664;2023-02-12T10:53:30;78952.53;;;-143.36;nan
39209;BME280;24929;51.982;4.664;2023-02-12T11:04:41;79000.72;;;-143.36;nan
39209;BME280;24929;51.982;4.664;2023-02-12T11:07:07;79022.81;;;-143.36;nan
39209;BME280;24929;51.982;4.664;2023-02-12T11:09:40;78954.53;;;-143.36;nan
39209;BME280;24929;51.982;4.664;2023-02-12T11:14:54;78958.56;;;-143.36;nan
39209;BME280;24929;51.982;4.664;2023-02-12T11:17:29;78950.53;;;-143.36;nan
39209;BME280;24929;51.982;4.664;2023-02-12T11:22:57;78912.38;;;-143.36;nan
39209;BME280;24929;51.982;4.664;2023-02-12T11:25:26;78940.50;;;-143.36;nan
39209;BME280;24929;51.982;4.664;2023-02-12T11:28:18;78940.50;;;-143.36;nan
39209;BME280;24929;51.982;4.664;2023-02-12T11:31:20;78938.47;;;-143.36;nan
39209;BME280;24929;51.982;4.664;2023-02-12T11:36:32;78876.25;;;-143.36;nan
39209;BME280;24929;51.982;4.664;2023-02-12T11:38:59;78880.25;;;-143.36;nan
39209;BME280;24929;51.982;4.664;2023-02-12T11:41:32;78864.19;;;-143.36;nan
39209;BME280;24929;51.982;4.664;2023-02-12T11:44:01;78866.19;;;-143.36;nan
39209;BME280;24929;51.982;4.664;2023-02-12T11:46:32;78932.47;;;-143.36;nan
39209;BME280;24929;51.982;4.664;2023-02-12T11:48:58;78930.44;;;-143.36;nan
39209;BME280;24929;51.982;4.664;2023-02-12T11:51:26;78860.19;;;-143.36;nan
39209;BME280;24929;51.982;4.664;2023-02-12T11:53:56;78846.13;;;-143.36;nan
39209;BME280;24929;51.982;4.664;2023-02-12T11:56:23;78874.22;;;-143.36;nan
39209;BME280;24929;51.982;4.664;2023-02-12T11:58:49;78900.34;;;-143.36;nan
39209;BME280;24929;51.982;4.664;2023-02-12T12:01:29;78860.19;;;-143.36;nan
39209;BME280;24929;51.982;4.664;2023-02-12T12:04:11;78874.22;;;-143.36;nan
39209;BME280;24929;51.982;4.664;2023-02-12T12:06:59;78858.16;;;-143.36;nan
39209;BME280;24929;51.982;4.664;2023-02-12T12:09:34;78870.22;;;-143.36;nan
39209;BME280;24929;51.982;4.664;2023-02-12T12:17:54;78745.72;;;-143.36;nan
39209;BME280;24929;51.982;4.664;2023-02-12T12:20:46;78763.78;;;-143.36;nan
39209;BME280;24929;51.982;4.664;2023-02-12T12:23:20;78767.81;;;-143.36;nan
39209;BME280;24929;51.982;4.664;2023-02-12T12:25:51;78836.06;;;-143.36;nan
39209;BME280;24929;51.982;4.664;2023-02-12T12:28:43;78820.03;;;-143.36;nan
39209;BME280;24929;51.982;4.664;2023-02-12T12:31:11;78884.28;;;-143.36;nan
39209;BME280;24929;51.982;4.664;2023-02-12T12:33:50;78828.03;;;-143.36;nan
39209;BME280;24929;51.982;4.664;2023-02-12T12:39:52;79044.91;;;-143.36;nan
39209;BME280;24929;51.982;4.664;2023-02-12T12:42:26;79095.09;;;-143.36;nan
39209;BME280;24929;51.982;4.664;2023-02-12T13:05:29;78787.88;;;-143.36;nan
39209;BME280;24929;51.982;4.664;2023-02-12T13:08:24;78797.94;;;-143.36;nan
39209;BME280;24929;51.982;4.664;2023-02-12T13:11:01;78753.75;;;-143.36;nan
39209;BME280;24929;51.982;4.664;2023-02-12T13:13:41;78842.09;;;-143.36;nan
39209;BME280;24929;51.982;4.664;2023-02-12T13:27:23;78930.44;;;-143.36;nan
39209;BME280;24929;51.982;4.664;2023-02-12T13:29:53;78932.47;;;-143.36;nan
39209;BME280;24929;51.982;4.664;2023-02-12T13:32:32;78926.44;;;-143.36;nan
39209;BME280;24929;51.982;4.664;2023-02-12T13:35:01;78908.38;;;-143.36;nan
39209;BME280;24929;51.982;4.664;2023-02-12T13:40:03;78888.28;;;-143.36;nan
39209;BME280;24929;51.982;4.664;2023-02-12T13:48:43;78920.41;;;-143.36;nan
39209;BME280;24929;51.982;4.664;2023-02-12T13:51:22;78848.13;;;-143.36;nan
39209;BME280;24929;51.982;4.664;2023-02-12T14:04:56;78876.25;;;-143.36;nan
39209;BME280;24929;51.982;4.664;2023-02-12T14:07:41;78852.16;;;-143.36;nan
39209;BME280;24929;51.982;4.664;2023-02-12T14:10:07;78890.28;;;-143.36;nan
39209;BME280;24929;51.982;4.664;2023-02-12T14:12:43;78876.25;;;-143.36;nan
39209;BME280;24929;51.982;4.664;2023-02-12T14:18:02;78866.19;;;-143.36;nan
39209;BME280;24929;51.982;4.664;2023-02-12T14:23:01;78812.00;;;-143.36;nan
39209;BME280;24929;51.982;4.664;2023-02-12T14:25:39;78783.88;;;-143.36;nan
39209;BME280;24929;51.982;4.664;2023-02-12T14:33:51;78848.13;;;-143.36;nan
39209;BME280;24929;51.982;4.664;2023-02-12T14:36:38;78916.41;;;-143.36;nan
39209;BME280;24929;51.982;4.664;2023-02-12T14:41:49;78848.13;;;-143.36;nan
39209;BME280;24929;51.982;4.664;2023-02-12T14:46:54;78850.13;;;-143.36;nan
39209;BME280;24929;51.982;4.664;2023-02-12T14:49:24;78824.03;;;-143.36;nan
39209;BME280;24929;51.982;4.664;2023-02-12T14:54:59;78830.06;;;-143.36;nan
39209;BME280;24929;51.982;4.664;2023-02-12T14:57:35;78805.97;;;-143.36;nan
39209;BME280;24929;51.982;4.664;2023-02-12T15:00:20;78828.03;;;-143.36;nan
39209;BME280;24929;51.982;4.664;2023-02-12T15:02:53;78840.09;;;-143.36;nan
39209;BME280;24929;51.982;4.664;2023-02-12T15:05:26;78906.34;;;-143.36;nan
39209;BME280;24929;51.982;4.664;2023-02-12T15:07:59;78916.41;;;-143.36;nan
39209;BME280;24929;51.982;4.664;2023-02-12T15:10:31;78978.66;;;-143.36;nan
39209;BME280;24929;51.982;4.664;2023-02-12T15:13:24;78950.53;;;-143.36;nan
39209;BME280;24929;51.982;4.664;2023-02-12T15:16:12;78962.56;;;-143.36;nan
39209;BME280;24929;51.982;4.664;2023-02-12T15:21:25;78982.66;;;-143.36;nan
39209;BME280;24929;51.982;4.664;2023-02-12T15:24:09;79022.81;;;-143.36;nan
39209;BME280;24929;51.982;4.664;2023-02-12T15:26:39;79018.81;;;-143.36;nan
39209;BME280;24929;51.982;4.664;2023-02-12T15:29:06;79044.91;;;-143.36;nan
39209;BME280;24929;51.982;4.664;2023-02-12T15:32:01;78996.72;;;-143.36;nan
39209;BME280;24929;51.982;4.664;2023-02-12T15:34:33;78828.03;;;-143.36;nan
39209;BME280;24929;51.982;4.664;2023-02-12T15:37:03;78944.50;;;-143.36;nan
39209;BME280;24929;51.982;4.664;2023-02-12T15:39:40;78940.50;;;-143.36;nan
39209;BME280;24929;51.982;4.664;2023-02-12T15:42:27;78914.38;;;-143.36;nan
39209;BME280;24929;51.982;4.664;2023-02-12T15:47:34;78952.53;;;-143.36;nan
39209;BME280;24929;51.982;4.664;2023-02-12T15:50:00;78922.41;;;-143.36;nan
39209;BME280;24929;51.982;4.664;2023-02-12T15:52:36;78840.09;;;-143.36;nan
39209;BME280;24929;51.982;4.664;2023-02-12T15:55:03;78852.16;;;-143.36;nan
39209;BME280;24929;51.982;4.664;2023-02-12T15:57:30;78890.28;;;-143.36;nan
39209;BME280;24929;51.982;4.664;2023-02-12T16:00:05;78856.16;;;-143.36;nan
39209;BME280;24929;51.982;4.664;2023-02-12T16:02:31;78880.25;;;-143.36;nan
39209;BME280;24929;51.982;4.664;2023-02-12T16:04:59;78860.19;;;-143.36;nan
39209;BME280;24929;51.982;4.664;2023-02-12T16:07:29;78856.16;;;-143.36;nan
39209;BME280;24929;51.982;4.664;2023-02-12T16:09:56;78850.13;;;-143.36;nan
39209;BME280;24929;51.982;4.664;2023-02-12T16:12:26;78862.19;;;-143.36;nan
39209;BME280;24929;51.982;4.664;2023-02-12T16:14:54;78872.22;;;-143.36;nan
39209;BME280;24929;51.982;4.664;2023-02-12T16:20:00;78846.13;;;-143.36;nan